sensor_id;sensor_type;location;lat;lon;timestamp;P1;durP1;ratioP1;P2;durP2;ratioP2
48897;SDS011;34713;50.038;20.000;2022-08-19T00:01:41;11.95;;;9.80;;
48897;SDS011;34713;50.038;20.000;2022-08-19T00:04:11;12.07;;;9.45;;
48897;SDS011;34713;50.038;20.000;2022-08-19T00:06:39;12.15;;;9.90;;
48897;SDS011;34713;50.038;20.000;2022-08-19T00:09:09;12.85;;;9.95;;
48897;SDS011;34713;50.038;20.000;2022-08-19T00:11:38;17.65;;;10.78;;
48897;SDS011;34713;50.038;20.000;2022-08-19T00:14:05;11.28;;;9.20;;
48897;SDS011;34713;50.038;20.000;2022-08-19T00:16:35;11.93;;;9.95;;
48897;SDS011;34713;50.038;20.000;2022-08-19T00:19:03;16.25;;;9.95;;
48897;SDS011;34713;50.038;20.000;2022-08-19T00:21:31;15.53;;;10.43;;
48897;SDS011;34713;50.038;20.000;2022-08-19T00:23:57;12.50;;;9.15;;
48897;SDS011;34713;50.038;20.000;2022-08-19T00:26:24;17.25;;;10.35;;
48897;SDS011;34713;50.038;20.000;2022-08-19T00:28:52;12.73;;;10.80;;
48897;SDS011;34713;50.038;20.000;2022-08-19T00:31:19;14.13;;;11.40;;
48897;SDS011;34713;50.038;20.000;2022-08-19T00:33:45;14.25;;;10.90;;
48897;SDS011;34713;50.038;20.000;2022-08-19T00:36:12;14.00;;;11.57;;
48897;SDS011;34713;50.038;20.000;2022-08-19T00:38:39;12.95;;;11.15;;
48897;SDS011;34713;50.038;20.000;2022-08-19T00:41:14;13.08;;;11.03;;
48897;SDS011;34713;50.038;20.000;2022-08-19T00:43:56;19.75;;;11.43;;
48897;SDS011;34713;50.038;20.000;2022-08-19T00:46:24;14.10;;;11.45;;
48897;SDS011;34713;50.038;20.000;2022-08-19T00:48:50;13.70;;;11.12;;
48897;SDS011;34713;50.038;20.000;2022-08-19T00:51:16;13.13;;;10.78;;
48897;SDS011;34713;50.038;20.000;2022-08-19T00:53:42;13.88;;;11.33;;
48897;SDS011;34713;50.038;20.000;2022-08-19T00:56:08;15.90;;;10.50;;
48897;SDS011;34713;50.038;20.000;2022-08-19T00:58:35;13.78;;;10.72;;
48897;SDS011;34713;50.038;20.000;2022-08-19T01:01:02;12.40;;;10.35;;
48897;SDS011;34713;50.038;20.000;2022-08-19T01:03:29;17.87;;;10.72;;
48897;SDS011;34713;50.038;20.000;2022-08-19T01:05:54;14.10;;;10.88;;
48897;SDS011;34713;50.038;20.000;2022-08-19T01:08:21;14.40;;;10.85;;
48897;SDS011;34713;50.038;20.000;2022-08-19T01:10:49;12.35;;;10.43;;
48897;SDS011;34713;50.038;20.000;2022-08-19T01:13:22;19.73;;;10.68;;
48897;SDS011;34713;50.038;20.000;2022-08-19T01:15:54;15.23;;;10.08;;
48897;SDS011;34713;50.038;20.000;2022-08-19T01:18:28;13.65;;;10.50;;
48897;SDS011;34713;50.038;20.000;2022-08-19T01:20:56;15.13;;;11.28;;
48897;SDS011;34713;50.038;20.000;2022-08-19T01:23:26;13.65;;;10.98;;
48897;SDS011;34713;50.038;20.000;2022-08-19T01:25:54;13.30;;;11.20;;
48897;SDS011;34713;50.038;20.000;2022-08-19T01:28:22;12.23;;;10.68;;
48897;SDS011;34713;50.038;20.000;2022-08-19T01:30:52;13.55;;;10.78;;
48897;SDS011;34713;50.038;20.000;2022-08-19T01:33:19;18.37;;;11.15;;
48897;SDS011;34713;50.038;20.000;2022-08-19T01:35:46;14.75;;;11.50;;
48897;SDS011;34713;50.038;20.000;2022-08-19T01:38:23;14.35;;;11.03;;
48897;SDS011;34713;50.038;20.000;2022-08-19T01:40:51;15.00;;;10.43;;
48897;SDS011;34713;50.038;20.000;2022-08-19T01:43:18;13.35;;;10.58;;
48897;SDS011;34713;50.038;20.000;2022-08-19T01:45:44;17.12;;;11.45;;
48897;SDS011;34713;50.038;20.000;2022-08-19T01:48:11;15.03;;;10.60;;
48897;SDS011;34713;50.038;20.000;2022-08-19T01:50:37;15.38;;;10.70;;
48897;SDS011;34713;50.038;20.000;2022-08-19T01:53:06;15.65;;;11.20;;
48897;SDS011;34713;50.038;20.000;2022-08-19T01:55:35;16.55;;;10.70;;
48897;SDS011;34713;50.038;20.000;2022-08-19T01:58:05;16.40;;;11.12;;
48897;SDS011;34713;50.038;20.000;2022-08-19T02:00:33;15.65;;;11.22;;
48897;SDS011;34713;50.038;20.000;2022-08-19T02:02:59;14.60;;;10.68;;
48897;SDS011;34713;50.038;20.000;2022-08-19T02:05:26;14.65;;;11.40;;
48897;SDS011;34713;50.038;20.000;2022-08-19T02:07:55;17.10;;;10.98;;
48897;SDS011;34713;50.038;20.000;2022-08-19T02:10:22;15.93;;;12.00;;
48897;SDS011;34713;50.038;20.000;2022-08-19T02:12:48;15.23;;;10.88;;
48897;SDS011;34713;50.038;20.000;2022-08-19T02:15:15;14.85;;;12.10;;
48897;SDS011;34713;50.038;20.000;2022-08-19T02:17:44;14.68;;;11.55;;
48897;SDS011;34713;50.038;20.000;2022-08-19T02:20:10;16.45;;;11.35;;
48897;SDS011;34713;50.038;20.000;2022-08-19T02:22:38;18.87;;;11.75;;
48897;SDS011;34713;50.038;20.000;2022-08-19T02:25:07;14.85;;;11.22;;
48897;SDS011;34713;50.038;20.000;2022-08-19T02:27:37;13.60;;;10.93;;
48897;SDS011;34713;50.038;20.000;2022-08-19T02:30:05;14.80;;;11.35;;
48897;SDS011;34713;50.038;20.000;2022-08-19T02:32:32;13.15;;;11.28;;
48897;SDS011;34713;50.038;20.000;2022-08-19T02:34:58;15.83;;;11.80;;
48897;SDS011;34713;50.038;20.000;2022-08-19T02:37:24;13.60;;;11.88;;
48897;SDS011;34713;50.038;20.000;2022-08-19T02:40:08;15.67;;;12.53;;
48897;SDS011;34713;50.038;20.000;2022-08-19T02:42:35;16.32;;;11.65;;
48897;SDS011;34713;50.038;20.000;2022-08-19T02:45:01;17.75;;;12.37;;
48897;SDS011;34713;50.038;20.000;2022-08-19T02:47:28;16.23;;;11.78;;
48897;SDS011;34713;50.038;20.000;2022-08-19T02:49:53;19.77;;;12.20;;
48897;SDS011;34713;50.038;20.000;2022-08-19T02:52:19;17.80;;;10.93;;
48897;SDS011;34713;50.038;20.000;2022-08-19T02:54:45;14.28;;;11.73;;
48897;SDS011;34713;50.038;20.000;2022-08-19T02:57:11;19.05;;;12.13;;
48897;SDS011;34713;50.038;20.000;2022-08-19T02:59:36;16.32;;;12.15;;
48897;SDS011;34713;50.038;20.000;2022-08-19T03:02:02;14.60;;;12.03;;
48897;SDS011;34713;50.038;20.000;2022-08-19T03:04:28;17.37;;;12.05;;
48897;SDS011;34713;50.038;20.000;2022-08-19T03:06:54;16.15;;;11.97;;
48897;SDS011;34713;50.038;20.000;2022-08-19T03:09:20;15.15;;;11.95;;
48897;SDS011;34713;50.038;20.000;2022-08-19T03:11:46;16.42;;;12.05;;
48897;SDS011;34713;50.038;20.000;2022-08-19T03:14:12;21.17;;;12.73;;
48897;SDS011;34713;50.038;20.000;2022-08-19T03:16:41;21.12;;;12.15;;
48897;SDS011;34713;50.038;20.000;2022-08-19T03:19:10;16.93;;;11.60;;
48897;SDS011;34713;50.038;20.000;2022-08-19T03:21:36;18.25;;;12.65;;
48897;SDS011;34713;50.038;20.000;2022-08-19T03:24:03;15.28;;;12.60;;
48897;SDS011;34713;50.038;20.000;2022-08-19T03:26:32;17.40;;;11.38;;
48897;SDS011;34713;50.038;20.000;2022-08-19T03:29:03;14.00;;;11.50;;
48897;SDS011;34713;50.038;20.000;2022-08-19T03:31:30;17.07;;;12.10;;
48897;SDS011;34713;50.038;20.000;2022-08-19T03:33:56;16.07;;;11.18;;
48897;SDS011;34713;50.038;20.000;2022-08-19T03:36:24;18.65;;;11.85;;
48897;SDS011;34713;50.038;20.000;2022-08-19T03:38:53;13.53;;;11.45;;
48897;SDS011;34713;50.038;20.000;2022-08-19T03:41:24;15.72;;;12.78;;
48897;SDS011;34713;50.038;20.000;2022-08-19T03:43:53;13.15;;;11.75;;
48897;SDS011;34713;50.038;20.000;2022-08-19T03:46:20;17.17;;;12.10;;
48897;SDS011;34713;50.038;20.000;2022-08-19T03:48:50;16.02;;;12.43;;
48897;SDS011;34713;50.038;20.000;2022-08-19T03:51:22;17.85;;;12.63;;
48897;SDS011;34713;50.038;20.000;2022-08-19T03:53:54;15.83;;;12.13;;
48897;SDS011;34713;50.038;20.000;2022-08-19T03:56:21;17.30;;;12.13;;
48897;SDS011;34713;50.038;20.000;2022-08-19T03:58:47;16.10;;;11.48;;
48897;SDS011;34713;50.038;20.000;2022-08-19T04:01:15;16.20;;;12.45;;
48897;SDS011;34713;50.038;20.000;2022-08-19T04:03:45;16.40;;;12.07;;
48897;SDS011;34713;50.038;20.000;2022-08-19T04:08:47;14.35;;;11.80;;
48897;SDS011;34713;50.038;20.000;2022-08-19T04:11:18;13.78;;;12.28;;
48897;SDS011;34713;50.038;20.000;2022-08-19T04:13:47;17.73;;;12.37;;
48897;SDS011;34713;50.038;20.000;2022-08-19T04:16:16;15.90;;;11.85;;
48897;SDS011;34713;50.038;20.000;2022-08-19T04:18:47;18.70;;;12.40;;
48897;SDS011;34713;50.038;20.000;2022-08-19T04:21:17;14.87;;;11.73;;
48897;SDS011;34713;50.038;20.000;2022-08-19T04:23:47;16.17;;;13.48;;
48897;SDS011;34713;50.038;20.000;2022-08-19T04:26:14;15.58;;;13.75;;
48897;SDS011;34713;50.038;20.000;2022-08-19T04:28:46;17.85;;;13.65;;
48897;SDS011;34713;50.038;20.000;2022-08-19T04:31:18;24.37;;;15.85;;
48897;SDS011;34713;50.038;20.000;2022-08-19T04:33:43;23.98;;;14.73;;
48897;SDS011;34713;50.038;20.000;2022-08-19T04:36:15;24.67;;;13.40;;
48897;SDS011;34713;50.038;20.000;2022-08-19T04:38:46;17.55;;;13.00;;
48897;SDS011;34713;50.038;20.000;2022-08-19T04:41:13;19.65;;;11.75;;
48897;SDS011;34713;50.038;20.000;2022-08-19T04:43:58;23.42;;;12.43;;
48897;SDS011;34713;50.038;20.000;2022-08-19T04:46:24;18.35;;;11.33;;
48897;SDS011;34713;50.038;20.000;2022-08-19T04:48:51;18.15;;;12.13;;
48897;SDS011;34713;50.038;20.000;2022-08-19T04:51:18;19.15;;;11.80;;
48897;SDS011;34713;50.038;20.000;2022-08-19T04:53:45;16.97;;;11.33;;
48897;SDS011;34713;50.038;20.000;2022-08-19T04:56:12;19.27;;;11.00;;
48897;SDS011;34713;50.038;20.000;2022-08-19T04:58:41;16.77;;;10.23;;
48897;SDS011;34713;50.038;20.000;2022-08-19T05:01:18;16.97;;;11.20;;
48897;SDS011;34713;50.038;20.000;2022-08-19T05:03:43;19.98;;;12.23;;
48897;SDS011;34713;50.038;20.000;2022-08-19T05:06:11;18.73;;;11.57;;
48897;SDS011;34713;50.038;20.000;2022-08-19T05:08:39;17.48;;;11.48;;
48897;SDS011;34713;50.038;20.000;2022-08-19T05:11:09;15.98;;;11.33;;
48897;SDS011;34713;50.038;20.000;2022-08-19T05:13:42;12.35;;;10.48;;
48897;SDS011;34713;50.038;20.000;2022-08-19T05:16:09;13.50;;;10.35;;
48897;SDS011;34713;50.038;20.000;2022-08-19T05:18:38;14.45;;;10.10;;
48897;SDS011;34713;50.038;20.000;2022-08-19T05:21:23;14.80;;;10.18;;
48897;SDS011;34713;50.038;20.000;2022-08-19T05:24:09;13.60;;;12.10;;
48897;SDS011;34713;50.038;20.000;2022-08-19T05:26:36;15.40;;;12.37;;
48897;SDS011;34713;50.038;20.000;2022-08-19T05:29:07;14.25;;;11.40;;
48897;SDS011;34713;50.038;20.000;2022-08-19T05:31:34;13.50;;;10.88;;
48897;SDS011;34713;50.038;20.000;2022-08-19T05:34:01;15.13;;;10.90;;
48897;SDS011;34713;50.038;20.000;2022-08-19T05:36:32;16.97;;;10.28;;
48897;SDS011;34713;50.038;20.000;2022-08-19T05:39:00;15.60;;;9.43;;
48897;SDS011;34713;50.038;20.000;2022-08-19T05:41:26;11.12;;;9.78;;
48897;SDS011;34713;50.038;20.000;2022-08-19T05:43:53;14.03;;;9.65;;
48897;SDS011;34713;50.038;20.000;2022-08-19T05:46:20;20.25;;;10.25;;
48897;SDS011;34713;50.038;20.000;2022-08-19T05:48:47;15.08;;;9.18;;
48897;SDS011;34713;50.038;20.000;2022-08-19T05:51:13;14.70;;;8.03;;
48897;SDS011;34713;50.038;20.000;2022-08-19T05:53:40;10.82;;;8.43;;
48897;SDS011;34713;50.038;20.000;2022-08-19T05:56:06;14.75;;;8.45;;
48897;SDS011;34713;50.038;20.000;2022-08-19T05:58:36;10.90;;;7.92;;
48897;SDS011;34713;50.038;20.000;2022-08-19T06:01:03;11.35;;;7.53;;
48897;SDS011;34713;50.038;20.000;2022-08-19T06:03:32;17.90;;;7.72;;
48897;SDS011;34713;50.038;20.000;2022-08-19T06:05:58;13.32;;;7.80;;
48897;SDS011;34713;50.038;20.000;2022-08-19T06:08:25;16.62;;;8.50;;
48897;SDS011;34713;50.038;20.000;2022-08-19T06:10:52;16.05;;;7.65;;
48897;SDS011;34713;50.038;20.000;2022-08-19T06:13:18;14.38;;;8.23;;
48897;SDS011;34713;50.038;20.000;2022-08-19T06:15:45;14.93;;;8.20;;
48897;SDS011;34713;50.038;20.000;2022-08-19T06:18:12;13.80;;;7.83;;
48897;SDS011;34713;50.038;20.000;2022-08-19T06:20:40;13.68;;;7.28;;
48897;SDS011;34713;50.038;20.000;2022-08-19T06:23:07;10.50;;;6.80;;
48897;SDS011;34713;50.038;20.000;2022-08-19T06:25:34;14.63;;;7.25;;
48897;SDS011;34713;50.038;20.000;2022-08-19T06:28:01;16.32;;;7.28;;
48897;SDS011;34713;50.038;20.000;2022-08-19T06:30:27;15.30;;;7.00;;
48897;SDS011;34713;50.038;20.000;2022-08-19T06:32:53;21.50;;;7.87;;
48897;SDS011;34713;50.038;20.000;2022-08-19T06:35:19;16.07;;;6.95;;
48897;SDS011;34713;50.038;20.000;2022-08-19T06:37:45;11.28;;;7.12;;
48897;SDS011;34713;50.038;20.000;2022-08-19T06:40:11;15.13;;;7.33;;
48897;SDS011;34713;50.038;20.000;2022-08-19T06:42:38;15.53;;;7.45;;
48897;SDS011;34713;50.038;20.000;2022-08-19T06:45:05;10.03;;;7.33;;
48897;SDS011;34713;50.038;20.000;2022-08-19T06:47:33;12.07;;;6.92;;
48897;SDS011;34713;50.038;20.000;2022-08-19T06:50:00;13.93;;;6.58;;
48897;SDS011;34713;50.038;20.000;2022-08-19T06:52:31;14.30;;;6.58;;
48897;SDS011;34713;50.038;20.000;2022-08-19T06:54:59;14.05;;;6.58;;
48897;SDS011;34713;50.038;20.000;2022-08-19T06:57:27;13.13;;;6.22;;
48897;SDS011;34713;50.038;20.000;2022-08-19T06:59:55;15.08;;;6.92;;
48897;SDS011;34713;50.038;20.000;2022-08-19T07:02:21;11.73;;;6.40;;
48897;SDS011;34713;50.038;20.000;2022-08-19T07:04:49;7.70;;;6.05;;
48897;SDS011;34713;50.038;20.000;2022-08-19T07:07:16;11.73;;;5.87;;
48897;SDS011;34713;50.038;20.000;2022-08-19T07:09:42;10.82;;;6.12;;
48897;SDS011;34713;50.038;20.000;2022-08-19T07:12:09;10.08;;;6.42;;
48897;SDS011;34713;50.038;20.000;2022-08-19T07:14:38;11.90;;;6.47;;
48897;SDS011;34713;50.038;20.000;2022-08-19T07:17:07;12.53;;;6.05;;
48897;SDS011;34713;50.038;20.000;2022-08-19T07:19:36;9.45;;;6.03;;
48897;SDS011;34713;50.038;20.000;2022-08-19T07:22:05;7.85;;;5.55;;
48897;SDS011;34713;50.038;20.000;2022-08-19T07:24:32;11.10;;;6.03;;
48897;SDS011;34713;50.038;20.000;2022-08-19T07:26:59;10.23;;;6.40;;
48897;SDS011;34713;50.038;20.000;2022-08-19T07:29:28;7.22;;;5.62;;
48897;SDS011;34713;50.038;20.000;2022-08-19T07:31:56;11.25;;;6.33;;
48897;SDS011;34713;50.038;20.000;2022-08-19T07:34:24;8.25;;;6.03;;
48897;SDS011;34713;50.038;20.000;2022-08-19T07:36:51;9.63;;;5.90;;
48897;SDS011;34713;50.038;20.000;2022-08-19T07:39:20;8.30;;;5.97;;
48897;SDS011;34713;50.038;20.000;2022-08-19T07:41:53;11.00;;;6.15;;
48897;SDS011;34713;50.038;20.000;2022-08-19T07:44:20;11.38;;;6.05;;
48897;SDS011;34713;50.038;20.000;2022-08-19T07:46:49;10.08;;;6.87;;
48897;SDS011;34713;50.038;20.000;2022-08-19T07:49:19;12.30;;;6.25;;
48897;SDS011;34713;50.038;20.000;2022-08-19T07:51:50;13.35;;;7.03;;
48897;SDS011;34713;50.038;20.000;2022-08-19T07:54:17;12.45;;;6.70;;
48897;SDS011;34713;50.038;20.000;2022-08-19T07:56:44;18.02;;;6.85;;
48897;SDS011;34713;50.038;20.000;2022-08-19T07:59:10;12.68;;;6.70;;
48897;SDS011;34713;50.038;20.000;2022-08-19T08:01:37;10.75;;;6.45;;
48897;SDS011;34713;50.038;20.000;2022-08-19T08:04:05;13.28;;;7.03;;
48897;SDS011;34713;50.038;20.000;2022-08-19T08:06:51;11.45;;;6.53;;
48897;SDS011;34713;50.038;20.000;2022-08-19T08:09:38;10.80;;;6.58;;
48897;SDS011;34713;50.038;20.000;2022-08-19T08:12:12;11.85;;;6.08;;
48897;SDS011;34713;50.038;20.000;2022-08-19T08:17:13;13.58;;;7.50;;
48897;SDS011;34713;50.038;20.000;2022-08-19T08:19:41;17.98;;;7.33;;
48897;SDS011;34713;50.038;20.000;2022-08-19T08:22:09;11.03;;;6.90;;
48897;SDS011;34713;50.038;20.000;2022-08-19T08:24:45;10.90;;;6.40;;
48897;SDS011;34713;50.038;20.000;2022-08-19T08:27:10;9.05;;;6.65;;
48897;SDS011;34713;50.038;20.000;2022-08-19T08:29:36;13.05;;;6.58;;
48897;SDS011;34713;50.038;20.000;2022-08-19T08:32:02;12.33;;;7.12;;
48897;SDS011;34713;50.038;20.000;2022-08-19T08:34:28;11.15;;;6.78;;
48897;SDS011;34713;50.038;20.000;2022-08-19T08:36:54;11.30;;;6.67;;
48897;SDS011;34713;50.038;20.000;2022-08-19T08:39:21;14.47;;;7.03;;
48897;SDS011;34713;50.038;20.000;2022-08-19T08:44:30;12.98;;;7.00;;
48897;SDS011;34713;50.038;20.000;2022-08-19T08:47:02;11.18;;;6.47;;
48897;SDS011;34713;50.038;20.000;2022-08-19T08:54:58;9.63;;;6.75;;
48897;SDS011;34713;50.038;20.000;2022-08-19T08:57:28;12.73;;;7.75;;
48897;SDS011;34713;50.038;20.000;2022-08-19T09:00:05;13.68;;;6.87;;
48897;SDS011;34713;50.038;20.000;2022-08-19T09:02:33;10.93;;;6.70;;
48897;SDS011;34713;50.038;20.000;2022-08-19T09:04:59;10.38;;;6.70;;
48897;SDS011;34713;50.038;20.000;2022-08-19T09:10:40;11.12;;;6.60;;
48897;SDS011;34713;50.038;20.000;2022-08-19T09:16:25;10.72;;;6.37;;
48897;SDS011;34713;50.038;20.000;2022-08-19T09:18:54;10.80;;;6.80;;
48897;SDS011;34713;50.038;20.000;2022-08-19T09:21:24;11.43;;;7.00;;
48897;SDS011;34713;50.038;20.000;2022-08-19T09:23:52;8.70;;;6.42;;
48897;SDS011;34713;50.038;20.000;2022-08-19T09:26:19;14.63;;;6.90;;
48897;SDS011;34713;50.038;20.000;2022-08-19T09:28:48;12.70;;;6.78;;
48897;SDS011;34713;50.038;20.000;2022-08-19T09:31:26;12.98;;;7.03;;
48897;SDS011;34713;50.038;20.000;2022-08-19T09:33:51;10.55;;;6.22;;
48897;SDS011;34713;50.038;20.000;2022-08-19T09:36:18;9.30;;;6.40;;
48897;SDS011;34713;50.038;20.000;2022-08-19T09:38:47;10.80;;;7.00;;
48897;SDS011;34713;50.038;20.000;2022-08-19T09:41:15;9.80;;;7.10;;
48897;SDS011;34713;50.038;20.000;2022-08-19T09:43:46;11.95;;;6.80;;
48897;SDS011;34713;50.038;20.000;2022-08-19T09:46:17;17.23;;;6.85;;
48897;SDS011;34713;50.038;20.000;2022-08-19T09:48:46;9.65;;;6.37;;
48897;SDS011;34713;50.038;20.000;2022-08-19T09:51:15;12.25;;;6.78;;
48897;SDS011;34713;50.038;20.000;2022-08-19T09:53:45;8.85;;;6.40;;
48897;SDS011;34713;50.038;20.000;2022-08-19T09:56:14;12.33;;;6.10;;
48897;SDS011;34713;50.038;20.000;2022-08-19T09:58:40;12.33;;;7.70;;
48897;SDS011;34713;50.038;20.000;2022-08-19T10:01:06;12.82;;;7.58;;
48897;SDS011;34713;50.038;20.000;2022-08-19T10:03:34;9.73;;;6.28;;
48897;SDS011;34713;50.038;20.000;2022-08-19T10:06:02;10.43;;;5.90;;
48897;SDS011;34713;50.038;20.000;2022-08-19T10:08:31;9.83;;;6.42;;
48897;SDS011;34713;50.038;20.000;2022-08-19T10:11:00;9.13;;;6.55;;
48897;SDS011;34713;50.038;20.000;2022-08-19T10:13:28;11.75;;;6.25;;
48897;SDS011;34713;50.038;20.000;2022-08-19T10:16:02;17.32;;;6.33;;
48897;SDS011;34713;50.038;20.000;2022-08-19T10:18:31;10.45;;;5.83;;
48897;SDS011;34713;50.038;20.000;2022-08-19T10:23:46;12.55;;;6.22;;
48897;SDS011;34713;50.038;20.000;2022-08-19T10:26:16;12.18;;;5.60;;
48897;SDS011;34713;50.038;20.000;2022-08-19T10:28:45;11.03;;;5.87;;
48897;SDS011;34713;50.038;20.000;2022-08-19T10:31:19;11.75;;;6.20;;
48897;SDS011;34713;50.038;20.000;2022-08-19T10:33:49;8.08;;;5.55;;
48897;SDS011;34713;50.038;20.000;2022-08-19T10:36:20;7.47;;;5.17;;
48897;SDS011;34713;50.038;20.000;2022-08-19T10:38:49;6.87;;;5.05;;
48897;SDS011;34713;50.038;20.000;2022-08-19T10:41:19;7.25;;;5.50;;
48897;SDS011;34713;50.038;20.000;2022-08-19T10:43:53;7.60;;;5.90;;
48897;SDS011;34713;50.038;20.000;2022-08-19T10:46:19;7.67;;;6.05;;
48897;SDS011;34713;50.038;20.000;2022-08-19T10:48:48;10.38;;;7.03;;
48897;SDS011;34713;50.038;20.000;2022-08-19T10:51:14;10.35;;;7.20;;
48897;SDS011;34713;50.038;20.000;2022-08-19T10:54:00;15.08;;;7.03;;
48897;SDS011;34713;50.038;20.000;2022-08-19T10:56:27;9.35;;;6.33;;
48897;SDS011;34713;50.038;20.000;2022-08-19T10:59:12;11.22;;;6.45;;
48897;SDS011;34713;50.038;20.000;2022-08-19T11:01:40;12.80;;;6.45;;
48897;SDS011;34713;50.038;20.000;2022-08-19T11:04:09;9.65;;;6.30;;
48897;SDS011;34713;50.038;20.000;2022-08-19T11:06:39;10.63;;;5.35;;
48897;SDS011;34713;50.038;20.000;2022-08-19T11:09:09;10.55;;;6.00;;
48897;SDS011;34713;50.038;20.000;2022-08-19T11:11:37;8.13;;;5.83;;
48897;SDS011;34713;50.038;20.000;2022-08-19T11:14:05;7.85;;;5.30;;
48897;SDS011;34713;50.038;20.000;2022-08-19T11:16:36;6.28;;;5.67;;
48897;SDS011;34713;50.038;20.000;2022-08-19T11:19:04;6.42;;;5.78;;
48897;SDS011;34713;50.038;20.000;2022-08-19T11:21:37;6.40;;;5.78;;
48897;SDS011;34713;50.038;20.000;2022-08-19T11:24:05;10.08;;;5.97;;
48897;SDS011;34713;50.038;20.000;2022-08-19T11:26:38;7.60;;;6.00;;
48897;SDS011;34713;50.038;20.000;2022-08-19T11:29:06;8.90;;;5.87;;
48897;SDS011;34713;50.038;20.000;2022-08-19T11:31:35;7.75;;;5.62;;
48897;SDS011;34713;50.038;20.000;2022-08-19T11:34:02;9.20;;;6.25;;
48897;SDS011;34713;50.038;20.000;2022-08-19T11:36:32;9.98;;;6.12;;
48897;SDS011;34713;50.038;20.000;2022-08-19T11:38:59;10.20;;;6.65;;
48897;SDS011;34713;50.038;20.000;2022-08-19T11:41:27;14.33;;;6.50;;
48897;SDS011;34713;50.038;20.000;2022-08-19T11:43:53;7.85;;;6.60;;
48897;SDS011;34713;50.038;20.000;2022-08-19T11:46:20;8.43;;;6.33;;
48897;SDS011;34713;50.038;20.000;2022-08-19T11:48:49;9.98;;;6.00;;
48897;SDS011;34713;50.038;20.000;2022-08-19T11:51:17;8.13;;;6.08;;
48897;SDS011;34713;50.038;20.000;2022-08-19T11:53:47;9.63;;;6.17;;
48897;SDS011;34713;50.038;20.000;2022-08-19T11:56:15;10.28;;;5.83;;
48897;SDS011;34713;50.038;20.000;2022-08-19T11:58:41;8.60;;;6.42;;
48897;SDS011;34713;50.038;20.000;2022-08-19T12:01:08;8.25;;;6.35;;
48897;SDS011;34713;50.038;20.000;2022-08-19T12:03:36;9.50;;;6.28;;
48897;SDS011;34713;50.038;20.000;2022-08-19T12:06:08;12.05;;;6.80;;
48897;SDS011;34713;50.038;20.000;2022-08-19T12:08:33;7.37;;;6.17;;
48897;SDS011;34713;50.038;20.000;2022-08-19T12:10:59;9.20;;;6.30;;
48897;SDS011;34713;50.038;20.000;2022-08-19T12:13:29;9.03;;;6.40;;
48897;SDS011;34713;50.038;20.000;2022-08-19T12:15:56;8.83;;;6.85;;
48897;SDS011;34713;50.038;20.000;2022-08-19T12:18:23;9.88;;;6.58;;
48897;SDS011;34713;50.038;20.000;2022-08-19T12:20:50;11.73;;;7.10;;
48897;SDS011;34713;50.038;20.000;2022-08-19T12:23:19;7.85;;;6.58;;
48897;SDS011;34713;50.038;20.000;2022-08-19T12:25:47;8.55;;;6.42;;
48897;SDS011;34713;50.038;20.000;2022-08-19T12:28:21;7.47;;;6.47;;
48897;SDS011;34713;50.038;20.000;2022-08-19T12:30:45;10.25;;;6.65;;
48897;SDS011;34713;50.038;20.000;2022-08-19T12:33:12;8.68;;;6.47;;
48897;SDS011;34713;50.038;20.000;2022-08-19T12:35:40;9.10;;;6.55;;
48897;SDS011;34713;50.038;20.000;2022-08-19T12:38:08;13.75;;;6.30;;
48897;SDS011;34713;50.038;20.000;2022-08-19T12:40:34;8.25;;;5.58;;
48897;SDS011;34713;50.038;20.000;2022-08-19T12:42:59;9.35;;;6.35;;
48897;SDS011;34713;50.038;20.000;2022-08-19T12:45:25;8.80;;;6.58;;
48897;SDS011;34713;50.038;20.000;2022-08-19T12:47:51;6.83;;;5.58;;
48897;SDS011;34713;50.038;20.000;2022-08-19T12:50:18;6.70;;;5.87;;
48897;SDS011;34713;50.038;20.000;2022-08-19T12:52:46;12.68;;;5.90;;
48897;SDS011;34713;50.038;20.000;2022-08-19T12:55:13;11.45;;;6.08;;
48897;SDS011;34713;50.038;20.000;2022-08-19T12:57:39;12.37;;;5.95;;
48897;SDS011;34713;50.038;20.000;2022-08-19T13:00:07;10.40;;;6.03;;
48897;SDS011;34713;50.038;20.000;2022-08-19T13:02:43;7.72;;;5.33;;
48897;SDS011;34713;50.038;20.000;2022-08-19T13:05:12;5.92;;;5.03;;
48897;SDS011;34713;50.038;20.000;2022-08-19T13:07:42;8.60;;;6.20;;
48897;SDS011;34713;50.038;20.000;2022-08-19T13:10:11;10.68;;;5.53;;
48897;SDS011;34713;50.038;20.000;2022-08-19T13:12:41;8.25;;;5.72;;
48897;SDS011;34713;50.038;20.000;2022-08-19T13:15:08;9.88;;;5.70;;
48897;SDS011;34713;50.038;20.000;2022-08-19T13:17:35;6.55;;;5.85;;
48897;SDS011;34713;50.038;20.000;2022-08-19T13:20:02;8.30;;;5.40;;
48897;SDS011;34713;50.038;20.000;2022-08-19T13:22:31;10.00;;;5.42;;
48897;SDS011;34713;50.038;20.000;2022-08-19T13:24:57;7.58;;;5.25;;
48897;SDS011;34713;50.038;20.000;2022-08-19T13:27:23;8.13;;;5.65;;
48897;SDS011;34713;50.038;20.000;2022-08-19T13:29:48;7.10;;;5.30;;
48897;SDS011;34713;50.038;20.000;2022-08-19T13:32:31;13.30;;;5.22;;
48897;SDS011;34713;50.038;20.000;2022-08-19T13:35:16;8.10;;;5.17;;
48897;SDS011;34713;50.038;20.000;2022-08-19T13:37:42;9.38;;;4.83;;
48897;SDS011;34713;50.038;20.000;2022-08-19T13:42:50;11.43;;;5.17;;
48897;SDS011;34713;50.038;20.000;2022-08-19T13:45:19;6.92;;;5.37;;
48897;SDS011;34713;50.038;20.000;2022-08-19T13:47:50;7.10;;;5.90;;
48897;SDS011;34713;50.038;20.000;2022-08-19T13:50:20;6.45;;;5.05;;
48897;SDS011;34713;50.038;20.000;2022-08-19T13:52:50;6.83;;;5.10;;
48897;SDS011;34713;50.038;20.000;2022-08-19T13:55:17;9.55;;;5.60;;
48897;SDS011;34713;50.038;20.000;2022-08-19T13:57:43;8.18;;;5.28;;
48897;SDS011;34713;50.038;20.000;2022-08-19T14:00:15;8.93;;;5.65;;
48897;SDS011;34713;50.038;20.000;2022-08-19T14:02:44;6.87;;;5.60;;
48897;SDS011;34713;50.038;20.000;2022-08-19T14:05:13;7.80;;;5.62;;
48897;SDS011;34713;50.038;20.000;2022-08-19T14:07:41;8.08;;;5.55;;
48897;SDS011;34713;50.038;20.000;2022-08-19T14:10:09;6.80;;;5.53;;
48897;SDS011;34713;50.038;20.000;2022-08-19T14:12:38;9.48;;;5.40;;
48897;SDS011;34713;50.038;20.000;2022-08-19T14:15:05;6.03;;;4.70;;
48897;SDS011;34713;50.038;20.000;2022-08-19T14:17:33;6.62;;;4.97;;
48897;SDS011;34713;50.038;20.000;2022-08-19T14:20:04;6.90;;;4.90;;
48897;SDS011;34713;50.038;20.000;2022-08-19T14:22:34;7.40;;;4.45;;
48897;SDS011;34713;50.038;20.000;2022-08-19T14:25:02;6.47;;;4.50;;
48897;SDS011;34713;50.038;20.000;2022-08-19T14:27:34;6.50;;;4.83;;
48897;SDS011;34713;50.038;20.000;2022-08-19T14:30:05;9.23;;;4.62;;
48897;SDS011;34713;50.038;20.000;2022-08-19T14:32:34;9.65;;;4.45;;
48897;SDS011;34713;50.038;20.000;2022-08-19T14:35:00;11.50;;;4.70;;
48897;SDS011;34713;50.038;20.000;2022-08-19T14:37:27;9.28;;;4.67;;
48897;SDS011;34713;50.038;20.000;2022-08-19T14:39:53;7.58;;;4.35;;
48897;SDS011;34713;50.038;20.000;2022-08-19T14:42:18;10.20;;;4.95;;
48897;SDS011;34713;50.038;20.000;2022-08-19T14:44:44;7.97;;;4.83;;
48897;SDS011;34713;50.038;20.000;2022-08-19T14:47:10;6.42;;;5.10;;
48897;SDS011;34713;50.038;20.000;2022-08-19T14:49:36;5.70;;;4.72;;
48897;SDS011;34713;50.038;20.000;2022-08-19T14:52:04;11.53;;;4.90;;
48897;SDS011;34713;50.038;20.000;2022-08-19T14:54:30;7.55;;;4.50;;